sensor_id;sensor_type;location;lat;lon;timestamp;pressure;altitude;pressure_sealevel;temperature;humidity
47670;BME280;33408;52.062;11.722;2023-02-19T00:00:09;101106.03;;;7.90;100.00
47670;BME280;33408;52.062;11.722;2023-02-19T00:02:37;101103.44;;;7.99;100.00
47670;BME280;33408;52.062;11.722;2023-02-19T00:05:04;101102.59;;;7.97;100.00
47670;BME280;33408;52.062;11.722;2023-02-19T00:07:31;101095.69;;;8.06;100.00
47670;BME280;33408;52.062;11.722;2023-02-19T00:09:57;101090.53;;;7.98;100.00
47670;BME280;33408;52.062;11.722;2023-02-19T00:12:24;101088.81;;;7.98;100.00
47670;BME280;33408;52.062;11.722;2023-02-19T00:14:50;101092.25;;;8.07;100.00
47670;BME280;33408;52.062;11.722;2023-02-19T00:17:19;101099.13;;;8.04;100.00
47670;BME280;33408;52.062;11.722;2023-02-19T00:19:47;101092.25;;;8.07;100.00
47670;BME280;33408;52.062;11.722;2023-02-19T00:22:13;101094.81;;;8.10;100.00
47670;BME280;33408;52.062;11.722;2023-02-19T00:24:40;101091.38;;;8.15;100.00
47670;BME280;33408;52.062;11.722;2023-02-19T00:27:07;101088.81;;;8.01;100.00
47670;BME280;33408;52.062;11.722;2023-02-19T00:29:34;101075.88;;;8.11;100.00
47670;BME280;33408;52.062;11.722;2023-02-19T00:32:00;101070.69;;;8.18;100.00
47670;BME280;33408;52.062;11.722;2023-02-19T00:34:27;101078.47;;;8.14;100.00
47670;BME280;33408;52.062;11.722;2023-02-19T00:36:55;101070.72;;;8.12;100.00
47670;BME280;33408;52.062;11.722;2023-02-19T00:39:21;101066.38;;;8.24;100.00
47670;BME280;33408;52.062;11.722;2023-02-19T00:41:48;101056.06;;;8.19;100.00
47670;BME280;33408;52.062;11.722;2023-02-19T00:44:15;101050.03;;;8.25;100.00
47670;BME280;33408;52.062;11.722;2023-02-19T00:46:42;101035.38;;;8.28;100.00
47670;BME280;33408;52.062;11.722;2023-02-19T00:49:15;101021.53;;;8.37;100.00
47670;BME280;33408;52.062;11.722;2023-02-19T00:51:42;101005.19;;;8.41;100.00
47670;BME280;33408;52.062;11.722;2023-02-19T00:54:10;101009.50;;;8.44;100.00
47670;BME280;33408;52.062;11.722;2023-02-19T00:56:37;101006.94;;;8.44;100.00
47670;BME280;33408;52.062;11.722;2023-02-19T00:59:04;101007.75;;;8.39;100.00
47670;BME280;33408;52.062;11.722;2023-02-19T01:01:31;101009.53;;;8.33;100.00
47670;BME280;33408;52.062;11.722;2023-02-19T01:03:57;101006.91;;;8.39;100.00
47670;BME280;33408;52.062;11.722;2023-02-19T01:06:24;101010.34;;;8.38;100.00
47670;BME280;33408;52.062;11.722;2023-02-19T01:08:50;101017.28;;;8.28;100.00
47670;BME280;33408;52.062;11.722;2023-02-19T01:11:18;101011.22;;;8.35;100.00
47670;BME280;33408;52.062;11.722;2023-02-19T01:13:45;101012.94;;;8.39;100.00
47670;BME280;33408;52.062;11.722;2023-02-19T01:16:13;101009.53;;;8.34;100.00
47670;BME280;33408;52.062;11.722;2023-02-19T01:18:41;100996.56;;;8.42;100.00
47670;BME280;33408;52.062;11.722;2023-02-19T01:21:13;100987.94;;;8.42;100.00
47670;BME280;33408;52.062;11.722;2023-02-19T01:23:41;100985.38;;;8.35;100.00
47670;BME280;33408;52.062;11.722;2023-02-19T01:26:11;100969.88;;;8.34;100.00
47670;BME280;33408;52.062;11.722;2023-02-19T01:28:39;100968.19;;;8.34;100.00
47670;BME280;33408;52.062;11.722;2023-02-19T01:31:07;100968.19;;;8.34;100.00
47670;BME280;33408;52.062;11.722;2023-02-19T01:33:36;100963.03;;;8.34;100.00
47670;BME280;33408;52.062;11.722;2023-02-19T01:36:03;100962.13;;;8.38;100.00
47670;BME280;33408;52.062;11.722;2023-02-19T01:38:30;100950.91;;;8.43;100.00
47670;BME280;33408;52.062;11.722;2023-02-19T01:40:58;100952.66;;;8.42;100.00
47670;BME280;33408;52.062;11.722;2023-02-19T01:43:26;100950.13;;;8.33;100.00
47670;BME280;33408;52.062;11.722;2023-02-19T01:45:54;100938.88;;;8.43;100.00
47670;BME280;33408;52.062;11.722;2023-02-19T01:48:23;100935.44;;;8.47;100.00
47670;BME280;33408;52.062;11.722;2023-02-19T01:50:54;100932.84;;;8.41;100.00
47670;BME280;33408;52.062;11.722;2023-02-19T01:53:24;100925.97;;;8.43;100.00
47670;BME280;33408;52.062;11.722;2023-02-19T01:55:54;100940.69;;;8.24;100.00
47670;BME280;33408;52.062;11.722;2023-02-19T01:58:23;100930.50;;;7.90;100.00
47670;BME280;33408;52.062;11.722;2023-02-19T02:00:51;100928.06;;;7.59;100.00
47670;BME280;33408;52.062;11.722;2023-02-19T02:03:19;100916.88;;;7.60;100.00
47670;BME280;33408;52.062;11.722;2023-02-19T02:05:52;100920.38;;;7.45;100.00
47670;BME280;33408;52.062;11.722;2023-02-19T02:08:21;100912.63;;;7.44;100.00
47670;BME280;33408;52.062;11.722;2023-02-19T02:11:06;100901.31;;;7.76;100.00
47670;BME280;33408;52.062;11.722;2023-02-19T02:13:33;100893.63;;;7.68;100.00
47670;BME280;33408;52.062;11.722;2023-02-19T02:16:17;100888.41;;;7.77;100.00
47670;BME280;33408;52.062;11.722;2023-02-19T02:18:55;100879.84;;;7.67;100.00
47670;BME280;33408;52.062;11.722;2023-02-19T02:21:41;100865.19;;;7.76;100.00
47670;BME280;33408;52.062;11.722;2023-02-19T02:24:42;100861.75;;;7.81;100.00
47670;BME280;33408;52.062;11.722;2023-02-19T02:27:41;100865.13;;;7.94;100.00
47670;BME280;33408;52.062;11.722;2023-02-19T02:30:16;100859.97;;;7.93;100.00
47670;BME280;33408;52.062;11.722;2023-02-19T02:32:52;100847.06;;;7.90;100.00
47670;BME280;33408;52.062;11.722;2023-02-19T02:35:21;100841.88;;;7.94;100.00
47670;BME280;33408;52.062;11.722;2023-02-19T02:37:49;100854.78;;;7.94;100.00
47670;BME280;33408;52.062;11.722;2023-02-19T02:40:19;100863.34;;;8.01;100.00
47670;BME280;33408;52.062;11.722;2023-02-19T02:42:46;100858.19;;;8.02;100.00
47670;BME280;33408;52.062;11.722;2023-02-19T02:45:29;100853.19;;;7.69;100.00
47670;BME280;33408;52.062;11.722;2023-02-19T02:48:09;100846.31;;;7.71;100.00
47670;BME280;33408;52.062;11.722;2023-02-19T02:50:40;100830.81;;;7.71;100.00
47670;BME280;33408;52.062;11.722;2023-02-19T02:53:13;100829.19;;;7.51;100.00
47670;BME280;33408;52.062;11.722;2023-02-19T02:55:59;100836.16;;;7.27;100.00
47670;BME280;33408;52.062;11.722;2023-02-19T02:58:27;100851.69;;;7.12;100.00
47670;BME280;33408;52.062;11.722;2023-02-19T03:00:58;100879.97;;;7.37;100.00
47670;BME280;33408;52.062;11.722;2023-02-19T03:03:44;100883.34;;;7.56;100.00
47670;BME280;33408;52.062;11.722;2023-02-19T03:06:16;100874.72;;;7.60;100.00
47670;BME280;33408;52.062;11.722;2023-02-19T03:08:49;100854.16;;;7.47;100.00
47670;BME280;33408;52.062;11.722;2023-02-19T03:11:18;100857.59;;;7.45;100.00
47670;BME280;33408;52.062;11.722;2023-02-19T03:14:05;100865.41;;;7.28;100.00
47670;BME280;33408;52.062;11.722;2023-02-19T03:16:56;100863.63;;;7.41;100.00
47670;BME280;33408;52.062;11.722;2023-02-19T03:19:45;100863.63;;;7.44;100.00
47670;BME280;33408;52.062;11.722;2023-02-19T03:22:18;100869.72;;;7.20;100.00
47670;BME280;33408;52.062;11.722;2023-02-19T03:24:50;100880.81;;;7.42;100.00
47670;BME280;33408;52.062;11.722;2023-02-19T03:27:37;100882.53;;;7.49;100.00
47670;BME280;33408;52.062;11.722;2023-02-19T03:30:10;100874.78;;;7.47;100.00
47670;BME280;33408;52.062;11.722;2023-02-19T03:32:43;100874.75;;;7.55;100.00
47670;BME280;33408;52.062;11.722;2023-02-19T03:35:13;100879.16;;;7.21;100.00
47670;BME280;33408;52.062;11.722;2023-02-19T03:37:44;100885.19;;;6.92;100.00
47670;BME280;33408;52.062;11.722;2023-02-19T03:40:12;100883.50;;;6.71;100.00
47670;BME280;33408;52.062;11.722;2023-02-19T03:42:43;100884.34;;;6.47;100.00
47670;BME280;33408;52.062;11.722;2023-02-19T03:45:23;100892.94;;;6.35;100.00
47670;BME280;33408;52.062;11.722;2023-02-19T03:47:58;100884.34;;;6.30;100.00
47670;BME280;33408;52.062;11.722;2023-02-19T03:50:33;100876.59;;;6.37;100.00
47670;BME280;33408;52.062;11.722;2023-02-19T03:53:08;100873.16;;;6.32;100.00
47670;BME280;33408;52.062;11.722;2023-02-19T03:55:42;100886.78;;;5.88;100.00
47670;BME280;33408;52.062;11.722;2023-02-19T03:58:14;100884.16;;;5.76;100.00
47670;BME280;33408;52.062;11.722;2023-02-19T04:00:48;100879.81;;;5.61;100.00
47670;BME280;33408;52.062;11.722;2023-02-19T04:03:26;100879.84;;;5.65;100.00
47670;BME280;33408;52.062;11.722;2023-02-19T04:05:58;100897.69;;;5.39;100.00
47670;BME280;33408;52.062;11.722;2023-02-19T04:08:27;100897.69;;;5.36;100.00
47670;BME280;33408;52.062;11.722;2023-02-19T04:10:57;100904.41;;;5.13;100.00
47670;BME280;33408;52.062;11.722;2023-02-19T04:13:29;100909.38;;;4.89;100.00
47670;BME280;33408;52.062;11.722;2023-02-19T04:16:00;100908.66;;;5.07;100.00
47670;BME280;33408;52.062;11.722;2023-02-19T04:18:32;100925.63;;;4.88;100.00
47670;BME280;33408;52.062;11.722;2023-02-19T04:21:02;100927.19;;;4.71;100.00
47670;BME280;33408;52.062;11.722;2023-02-19T04:23:35;100934.84;;;4.66;100.00
47670;BME280;33408;52.062;11.722;2023-02-19T04:26:04;100946.59;;;4.43;100.00
47670;BME280;33408;52.062;11.722;2023-02-19T04:28:32;100946.59;;;4.43;100.00
47670;BME280;33408;52.062;11.722;2023-02-19T04:30:59;100932.06;;;4.42;100.00
47670;BME280;33408;52.062;11.722;2023-02-19T04:33:25;100943.28;;;4.51;100.00
47670;BME280;33408;52.062;11.722;2023-02-19T04:35:53;100956.84;;;4.38;100.00
47670;BME280;33408;52.062;11.722;2023-02-19T04:38:20;100960.19;;;4.31;100.00
47670;BME280;33408;52.062;11.722;2023-02-19T04:40:46;100974.66;;;4.24;100.00
47670;BME280;33408;52.062;11.722;2023-02-19T04:43:15;100977.94;;;4.12;100.00
47670;BME280;33408;52.062;11.722;2023-02-19T04:45:43;100978.69;;;4.05;100.00
47670;BME280;33408;52.062;11.722;2023-02-19T04:48:10;100973.59;;;4.07;100.00
47670;BME280;33408;52.062;11.722;2023-02-19T04:50:38;100965.88;;;4.05;100.00
47670;BME280;33408;52.062;11.722;2023-02-19T04:53:06;100981.19;;;3.99;100.00
47670;BME280;33408;52.062;11.722;2023-02-19T04:55:35;100979.44;;;3.96;100.00
47670;BME280;33408;52.062;11.722;2023-02-19T04:58:02;100989.78;;;4.03;100.00
47670;BME280;33408;52.062;11.722;2023-02-19T05:00:29;101003.34;;;3.94;100.00
47670;BME280;33408;52.062;11.722;2023-02-19T05:02:55;101002.53;;;3.96;100.00
47670;BME280;33408;52.062;11.722;2023-02-19T05:05:22;101020.38;;;3.89;100.00
47670;BME280;33408;52.062;11.722;2023-02-19T05:07:49;101027.94;;;3.79;100.00
47670;BME280;33408;52.062;11.722;2023-02-19T05:10:17;101033.13;;;3.82;100.00
47670;BME280;33408;52.062;11.722;2023-02-19T05:12:43;101041.38;;;3.63;100.00
47670;BME280;33408;52.062;11.722;2023-02-19T05:15:10;101042.97;;;3.55;100.00
47670;BME280;33408;52.062;11.722;2023-02-19T05:17:36;101042.13;;;3.56;100.00
47670;BME280;33408;52.062;11.722;2023-02-19T05:20:03;101050.50;;;3.45;100.00
47670;BME280;33408;52.062;11.722;2023-02-19T05:22:30;101048.00;;;3.49;100.00
47670;BME280;33408;52.062;11.722;2023-02-19T05:24:57;101060.00;;;3.50;100.00
47670;BME280;33408;52.062;11.722;2023-02-19T05:27:25;101059.19;;;3.55;100.00
47670;BME280;33408;52.062;11.722;2023-02-19T05:29:51;101057.19;;;3.36;100.00
47670;BME280;33408;52.062;11.722;2023-02-19T05:32:18;101059.47;;;3.20;100.00
47670;BME280;33408;52.062;11.722;2023-02-19T05:34:44;101056.25;;;3.31;100.00
47670;BME280;33408;52.062;11.722;2023-02-19T05:37:11;101055.84;;;3.07;100.00
47670;BME280;33408;52.062;11.722;2023-02-19T05:39:37;101056.94;;;3.22;100.00
47670;BME280;33408;52.062;11.722;2023-02-19T05:42:04;101056.97;;;3.23;100.00
47670;BME280;33408;52.062;11.722;2023-02-19T05:44:32;101052.53;;;3.13;100.00
47670;BME280;33408;52.062;11.722;2023-02-19T05:46:58;101054.09;;;3.03;100.00
47670;BME280;33408;52.062;11.722;2023-02-19T05:49:25;101063.50;;;3.04;100.00
47670;BME280;33408;52.062;11.722;2023-02-19T05:51:52;101063.47;;;3.03;100.00
47670;BME280;33408;52.062;11.722;2023-02-19T05:54:18;101079.38;;;2.86;100.00
47670;BME280;33408;52.062;11.722;2023-02-19T05:56:45;101079.38;;;2.86;100.00
47670;BME280;33408;52.062;11.722;2023-02-19T05:59:14;101082.22;;;3.02;100.00
47670;BME280;33408;52.062;11.722;2023-02-19T06:01:43;101089.81;;;2.97;100.00
47670;BME280;33408;52.062;11.722;2023-02-19T06:04:10;101088.91;;;2.94;100.00
47670;BME280;33408;52.062;11.722;2023-02-19T06:06:38;101091.59;;;3.00;100.00
47670;BME280;33408;52.062;11.722;2023-02-19T06:09:06;101095.78;;;2.96;100.00
47670;BME280;33408;52.062;11.722;2023-02-19T06:11:33;101101.78;;;2.97;100.00
47670;BME280;33408;52.062;11.722;2023-02-19T06:13:59;101113.59;;;2.90;100.00
47670;BME280;33408;52.062;11.722;2023-02-19T06:16:26;101117.91;;;2.92;100.00
47670;BME280;33408;52.062;11.722;2023-02-19T06:18:54;101120.47;;;2.92;100.00
47670;BME280;33408;52.062;11.722;2023-02-19T06:21:21;101123.63;;;2.79;100.00
47670;BME280;33408;52.062;11.722;2023-02-19T06:23:48;101133.94;;;2.82;100.00
47670;BME280;33408;52.062;11.722;2023-02-19T06:26:16;101141.75;;;2.88;100.00
47670;BME280;33408;52.062;11.722;2023-02-19T06:28:44;101153.31;;;3.15;100.00
47670;BME280;33408;52.062;11.722;2023-02-19T06:31:12;101163.53;;;3.14;100.00
47670;BME280;33408;52.062;11.722;2023-02-19T06:33:39;101175.16;;;2.96;100.00
47670;BME280;33408;52.062;11.722;2023-02-19T06:36:10;101188.34;;;2.73;100.00
47670;BME280;33408;52.062;11.722;2023-02-19T06:38:37;101196.31;;;2.86;100.00
47670;BME280;33408;52.062;11.722;2023-02-19T06:41:04;101199.69;;;2.44;100.00
47670;BME280;33408;52.062;11.722;2023-02-19T06:43:32;101223.50;;;2.81;100.00
47670;BME280;33408;52.062;11.722;2023-02-19T06:45:59;101228.56;;;2.78;100.00
47670;BME280;33408;52.062;11.722;2023-02-19T06:48:27;101239.16;;;2.55;100.00
47670;BME280;33408;52.062;11.722;2023-02-19T06:50:54;101242.16;;;2.75;100.00
47670;BME280;33408;52.062;11.722;2023-02-19T06:53:23;101250.91;;;2.85;100.00
47670;BME280;33408;52.062;11.722;2023-02-19T06:55:56;101248.00;;;3.10;100.00
47670;BME280;33408;52.062;11.722;2023-02-19T06:58:23;101264.00;;;2.99;100.00
47670;BME280;33408;52.062;11.722;2023-02-19T07:00:50;101262.13;;;2.52;100.00
47670;BME280;33408;52.062;11.722;2023-02-19T07:03:17;101271.56;;;2.92;100.00
47670;BME280;33408;52.062;11.722;2023-02-19T07:05:44;101279.97;;;2.87;100.00
47670;BME280;33408;52.062;11.722;2023-02-19T07:08:10;101276.56;;;2.88;100.00
47670;BME280;33408;52.062;11.722;2023-02-19T07:10:38;101281.88;;;2.96;100.00
47670;BME280;33408;52.062;11.722;2023-02-19T07:13:05;101276.88;;;3.02;100.00
47670;BME280;33408;52.062;11.722;2023-02-19T07:15:31;101289.69;;;3.02;100.00
47670;BME280;33408;52.062;11.722;2023-02-19T07:17:58;101293.69;;;2.89;100.00
47670;BME280;33408;52.062;11.722;2023-02-19T07:20:25;101301.13;;;3.18;100.00
47670;BME280;33408;52.062;11.722;2023-02-19T07:22:51;101307.22;;;3.24;100.00
47670;BME280;33408;52.062;11.722;2023-02-19T07:25:18;101324.44;;;3.30;100.00
47670;BME280;33408;52.062;11.722;2023-02-19T07:27:47;101333.59;;;3.20;100.00
47670;BME280;33408;52.062;11.722;2023-02-19T07:30:14;101335.81;;;3.44;100.00
47670;BME280;33408;52.062;11.722;2023-02-19T07:32:40;101348.88;;;3.55;100.00
47670;BME280;33408;52.062;11.722;2023-02-19T07:35:07;101353.03;;;3.50;100.00
47670;BME280;33408;52.062;11.722;2023-02-19T07:37:34;101352.28;;;3.54;100.00
47670;BME280;33408;52.062;11.722;2023-02-19T07:40:01;101356.19;;;3.79;100.00
47670;BME280;33408;52.062;11.722;2023-02-19T07:42:28;101357.56;;;3.63;100.00
47670;BME280;33408;52.062;11.722;2023-02-19T07:44:56;101360.88;;;3.56;100.00
47670;BME280;33408;52.062;11.722;2023-02-19T07:47:23;101365.66;;;3.82;100.00
47670;BME280;33408;52.062;11.722;2023-02-19T07:49:49;101362.03;;;3.72;100.00
47670;BME280;33408;52.062;11.722;2023-02-19T07:52:16;101372.50;;;3.84;100.00
47670;BME280;33408;52.062;11.722;2023-02-19T07:54:43;101380.22;;;3.84;100.00
47670;BME280;33408;52.062;11.722;2023-02-19T07:57:09;101372.16;;;4.10;100.00
47670;BME280;33408;52.062;11.722;2023-02-19T07:59:36;101382.50;;;4.15;100.00
47670;BME280;33408;52.062;11.722;2023-02-19T08:02:07;101384.91;;;4.07;100.00
47670;BME280;33408;52.062;11.722;2023-02-19T08:04:52;101391.16;;;4.22;100.00
47670;BME280;33408;52.062;11.722;2023-02-19T08:07:19;101389.53;;;4.25;100.00
47670;BME280;33408;52.062;11.722;2023-02-19T08:09:45;101407.34;;;4.16;100.00
47670;BME280;33408;52.062;11.722;2023-02-19T08:12:33;101415.22;;;4.25;100.00
47670;BME280;33408;52.062;11.722;2023-02-19T08:15:17;101421.09;;;4.21;100.00
47670;BME280;33408;52.062;11.722;2023-02-19T08:17:45;101431.50;;;4.27;100.00
47670;BME280;33408;52.062;11.722;2023-02-19T08:20:11;101432.19;;;4.20;100.00
47670;BME280;33408;52.062;11.722;2023-02-19T08:22:38;101444.75;;;4.05;100.00
47670;BME280;33408;52.062;11.722;2023-02-19T08:25:05;101449.09;;;4.09;100.00
47670;BME280;33408;52.062;11.722;2023-02-19T08:27:32;101453.16;;;3.99;100.00
47670;BME280;33408;52.062;11.722;2023-02-19T08:29:58;101457.59;;;4.06;100.00
47670;BME280;33408;52.062;11.722;2023-02-19T08:32:25;101459.13;;;3.96;100.00
47670;BME280;33408;52.062;11.722;2023-02-19T08:34:53;101457.97;;;4.26;100.00
47670;BME280;33408;52.062;11.722;2023-02-19T08:37:19;101471.66;;;4.25;100.00
47670;BME280;33408;52.062;11.722;2023-02-19T08:39:46;101469.38;;;4.41;100.00
47670;BME280;33408;52.062;11.722;2023-02-19T08:42:12;101470.38;;;4.49;100.00
47670;BME280;33408;52.062;11.722;2023-02-19T08:44:39;101475.81;;;4.64;100.00
47670;BME280;33408;52.062;11.722;2023-02-19T08:47:05;101477.94;;;4.88;100.00
47670;BME280;33408;52.062;11.722;2023-02-19T08:49:32;101476.97;;;4.82;100.00
47670;BME280;33408;52.062;11.722;2023-02-19T08:52:00;101482.53;;;5.08;100.00
47670;BME280;33408;52.062;11.722;2023-02-19T08:54:26;101481.03;;;5.21;100.00
47670;BME280;33408;52.062;11.722;2023-02-19T08:56:53;101491.13;;;5.10;100.00
47670;BME280;33408;52.062;11.722;2023-02-19T08:59:19;101486.84;;;5.09;100.00
47670;BME280;33408;52.062;11.722;2023-02-19T09:01:46;101492.44;;;4.85;100.00
47670;BME280;33408;52.062;11.722;2023-02-19T09:04:13;101484.94;;;4.99;100.00
47670;BME280;33408;52.062;11.722;2023-02-19T09:06:39;101490.88;;;4.93;100.00
47670;BME280;33408;52.062;11.722;2023-02-19T09:09:07;101500.50;;;5.06;100.00
47670;BME280;33408;52.062;11.722;2023-02-19T09:11:34;101507.00;;;4.86;100.00
47670;BME280;33408;52.062;11.722;2023-02-19T09:14:03;101509.06;;;5.07;100.00
47670;BME280;33408;52.062;11.722;2023-02-19T09:16:31;101517.13;;;5.27;100.00
47670;BME280;33408;52.062;11.722;2023-02-19T09:18:58;101516.88;;;5.13;100.00
47670;BME280;33408;52.062;11.722;2023-02-19T09:21:24;101528.38;;;5.35;100.00
47670;BME280;33408;52.062;11.722;2023-02-19T09:23:51;101525.34;;;5.06;100.00
47670;BME280;33408;52.062;11.722;2023-02-19T09:26:19;101535.59;;;5.04;100.00
47670;BME280;33408;52.062;11.722;2023-02-19T09:28:46;101534.72;;;5.04;100.00
47670;BME280;33408;52.062;11.722;2023-02-19T09:31:14;101524.69;;;5.18;100.00
47670;BME280;33408;52.062;11.722;2023-02-19T09:33:41;101535.91;;;5.24;100.00
47670;BME280;33408;52.062;11.722;2023-02-19T09:36:08;101529.81;;;5.18;100.00
47670;BME280;33408;52.062;11.722;2023-02-19T09:38:35;101533.78;;;4.99;100.00
47670;BME280;33408;52.062;11.722;2023-02-19T09:41:06;101532.53;;;5.27;100.00
47670;BME280;33408;52.062;11.722;2023-02-19T09:43:35;101535.41;;;5.47;100.00
47670;BME280;33408;52.062;11.722;2023-02-19T09:46:07;101538.34;;;5.69;100.00
47670;BME280;33408;52.062;11.722;2023-02-19T09:48:35;101549.75;;;5.88;100.00
47670;BME280;33408;52.062;11.722;2023-02-19T09:51:02;101546.31;;;5.89;100.00
47670;BME280;33408;52.062;11.722;2023-02-19T09:53:36;101560.38;;;6.09;100.00
47670;BME280;33408;52.062;11.722;2023-02-19T09:56:06;101560.88;;;5.87;100.00
47670;BME280;33408;52.062;11.722;2023-02-19T09:58:36;101567.13;;;6.01;100.00
47670;BME280;33408;52.062;11.722;2023-02-19T10:01:09;101567.22;;;6.07;100.00
47670;BME280;33408;52.062;11.722;2023-02-19T10:03:38;101564.69;;;6.12;100.00
47670;BME280;33408;52.062;11.722;2023-02-19T10:06:13;101572.41;;;5.55;100.00
47670;BME280;33408;52.062;11.722;2023-02-19T10:08:44;101580.19;;;5.60;100.00
47670;BME280;33408;52.062;11.722;2023-02-19T10:11:11;101579.06;;;5.42;100.00
47670;BME280;33408;52.062;11.722;2023-02-19T10:13:42;101573.28;;;5.56;100.00
47670;BME280;33408;52.062;11.722;2023-02-19T10:16:13;101570.00;;;5.66;100.00
47670;BME280;33408;52.062;11.722;2023-02-19T10:18:43;101581.09;;;5.63;100.00
47670;BME280;33408;52.062;11.722;2023-02-19T10:21:15;101579.09;;;5.97;100.00
47670;BME280;33408;52.062;11.722;2023-02-19T10:23:44;101581.78;;;6.07;100.00
47670;BME280;33408;52.062;11.722;2023-02-19T10:26:11;101586.47;;;5.77;100.00
47670;BME280;33408;52.062;11.722;2023-02-19T10:28:37;101586.88;;;6.03;100.00
47670;BME280;33408;52.062;11.722;2023-02-19T10:31:13;101599.19;;;6.23;100.00
47670;BME280;33408;52.062;11.722;2023-02-19T10:33:48;101604.47;;;5.77;100.00
47670;BME280;33408;52.062;11.722;2023-02-19T10:36:23;101610.47;;;5.76;100.00
47670;BME280;33408;52.062;11.722;2023-02-19T10:38:51;101613.03;;;5.76;100.00
47670;BME280;33408;52.062;11.722;2023-02-19T10:41:20;101613.00;;;5.73;100.00
47670;BME280;33408;52.062;11.722;2023-02-19T10:43:51;101615.97;;;5.96;100.00
47670;BME280;33408;52.062;11.722;2023-02-19T10:46:23;101622.22;;;6.14;100.00
47670;BME280;33408;52.062;11.722;2023-02-19T10:48:52;101625.72;;;6.19;100.00
47670;BME280;33408;52.062;11.722;2023-02-19T10:51:24;101639.34;;;6.13;100.00
47670;BME280;33408;52.062;11.722;2023-02-19T10:54:03;101630.09;;;6.28;100.00
47670;BME280;33408;52.062;11.722;2023-02-19T10:56:31;101643.09;;;6.35;100.00
47670;BME280;33408;52.062;11.722;2023-02-19T10:59:14;101646.66;;;6.45;100.00
47670;BME280;33408;52.062;11.722;2023-02-19T11:01:54;101650.16;;;6.50;100.00
47670;BME280;33408;52.062;11.722;2023-02-19T11:04:22;101656.88;;;6.36;100.00
47670;BME280;33408;52.062;11.722;2023-02-19T11:06:49;101656.91;;;6.41;100.00
47670;BME280;33408;52.062;11.722;2023-02-19T11:09:24;101665.13;;;6.16;100.00
47670;BME280;33408;52.062;11.722;2023-02-19T11:11:52;101670.34;;;6.19;100.00
47670;BME280;33408;52.062;11.722;2023-02-19T11:14:22;101668.78;;;6.31;100.00
47670;BME280;33408;52.062;11.722;2023-02-19T11:16:51;101665.38;;;6.32;100.00
47670;BME280;33408;52.062;11.722;2023-02-19T11:19:27;101668.28;;;6.58;100.00
47670;BME280;33408;52.062;11.722;2023-02-19T11:21:54;101667.91;;;6.29;100.00
47670;BME280;33408;52.062;11.722;2023-02-19T11:24:30;101676.09;;;6.63;100.00
47670;BME280;33408;52.062;11.722;2023-02-19T11:27:02;101675.91;;;6.47;100.00
47670;BME280;33408;52.062;11.722;2023-02-19T11:29:29;101692.59;;;6.77;100.00
47670;BME280;33408;52.062;11.722;2023-02-19T11:32:16;101691.81;;;6.86;100.00
47670;BME280;33408;52.062;11.722;2023-02-19T11:34:48;101692.94;;;6.41;100.00
47670;BME280;33408;52.062;11.722;2023-02-19T11:37:16;101683.72;;;6.56;100.00
47670;BME280;33408;52.062;11.722;2023-02-19T11:39:45;101670.84;;;6.56;100.00
47670;BME280;33408;52.062;11.722;2023-02-19T11:42:25;101686.34;;;6.60;100.00
47670;BME280;33408;52.062;11.722;2023-02-19T11:45:08;101673.06;;;6.29;100.00
47670;BME280;33408;52.062;11.722;2023-02-19T11:47:41;101671.19;;;6.18;100.00
47670;BME280;33408;52.062;11.722;2023-02-19T11:50:20;101679.59;;;6.69;100.00
47670;BME280;33408;52.062;11.722;2023-02-19T11:53:01;101667.72;;;6.81;100.00
47670;BME280;33408;52.062;11.722;2023-02-19T11:55:44;101664.16;;;6.71;100.00
47670;BME280;33408;52.062;11.722;2023-02-19T11:58:38;101677.91;;;6.68;100.00
47670;BME280;33408;52.062;11.722;2023-02-19T12:01:16;101688.44;;;6.88;100.00
47670;BME280;33408;52.062;11.722;2023-02-19T12:04:03;101677.34;;;6.92;100.00
47670;BME280;33408;52.062;11.722;2023-02-19T12:06:45;101685.84;;;6.88;100.00
47670;BME280;33408;52.062;11.722;2023-02-19T12:09:30;101692.94;;;7.06;100.00
47670;BME280;33408;52.062;11.722;2023-02-19T12:12:18;101682.22;;;6.72;100.00
47670;BME280;33408;52.062;11.722;2023-02-19T12:17:50;101690.81;;;6.71;100.00
47670;BME280;33408;52.062;11.722;2023-02-19T12:20:27;101703.09;;;6.91;100.00
47670;BME280;33408;52.062;11.722;2023-02-19T12:23:12;101701.00;;;7.36;100.00
47670;BME280;33408;52.062;11.722;2023-02-19T12:25:52;101711.44;;;7.48;100.00
47670;BME280;33408;52.062;11.722;2023-02-19T12:28:32;101713.03;;;7.35;100.00
47670;BME280;33408;52.062;11.722;2023-02-19T12:34:29;101710.38;;;7.27;100.00
47670;BME280;33408;52.062;11.722;2023-02-19T12:37:12;101702.59;;;7.26;100.00
47670;BME280;33408;52.062;11.722;2023-02-19T12:39:46;101711.41;;;7.45;100.00
47670;BME280;33408;52.062;11.722;2023-02-19T12:42:29;101719.03;;;7.36;100.00
47670;BME280;33408;52.062;11.722;2023-02-19T12:45:03;101713.69;;;7.16;100.00
47670;BME280;33408;52.062;11.722;2023-02-19T12:47:36;101711.59;;;6.85;100.00
47670;BME280;33408;52.062;11.722;2023-02-19T12:50:12;101716.53;;;6.67;100.00
47670;BME280;33408;52.062;11.722;2023-02-19T12:52:42;101720.66;;;6.55;100.00
47670;BME280;33408;52.062;11.722;2023-02-19T12:55:20;101725.59;;;7.04;100.00
47670;BME280;33408;52.062;11.722;2023-02-19T12:57:49;101725.31;;;7.59;100.00
47670;BME280;33408;52.062;11.722;2023-02-19T13:00:26;101721.94;;;7.65;100.00
47670;BME280;33408;52.062;11.722;2023-02-19T13:02:58;101716.84;;;7.70;100.00